sensor_id;sensor_type;location;lat;lon;timestamp;P1;durP1;ratioP1;P2;durP2;ratioP2
11907;SDS011;6014;47.690;9.130;2023-02-04T00:00:26;2.23;;;1.03;;
11907;SDS011;6014;47.690;9.130;2023-02-04T00:02:56;0.73;;;0.63;;
11907;SDS011;6014;47.690;9.130;2023-02-04T00:05:24;1.83;;;1.00;;
11907;SDS011;6014;47.690;9.130;2023-02-04T00:07:52;0.90;;;0.90;;
11907;SDS011;6014;47.690;9.130;2023-02-04T00:10:20;2.17;;;1.13;;
11907;SDS011;6014;47.690;9.130;2023-02-04T00:12:49;1.50;;;1.00;;
11907;SDS011;6014;47.690;9.130;2023-02-04T00:15:17;3.40;;;1.13;;
11907;SDS011;6014;47.690;9.130;2023-02-04T00:17:46;1.93;;;1.10;;
11907;SDS011;6014;47.690;9.130;2023-02-04T00:20:14;2.73;;;1.20;;
11907;SDS011;6014;47.690;9.130;2023-02-04T00:22:43;0.63;;;0.60;;
11907;SDS011;6014;47.690;9.130;2023-02-04T00:25:11;1.37;;;0.97;;
11907;SDS011;6014;47.690;9.130;2023-02-04T00:27:39;1.00;;;0.73;;
11907;SDS011;6014;47.690;9.130;2023-02-04T00:30:09;2.67;;;1.33;;
11907;SDS011;6014;47.690;9.130;2023-02-04T00:32:38;1.77;;;1.20;;
11907;SDS011;6014;47.690;9.130;2023-02-04T00:35:07;1.77;;;0.83;;
11907;SDS011;6014;47.690;9.130;2023-02-04T00:37:35;2.10;;;1.23;;
11907;SDS011;6014;47.690;9.130;2023-02-04T00:40:03;1.53;;;0.80;;
11907;SDS011;6014;47.690;9.130;2023-02-04T00:42:31;2.13;;;1.27;;
11907;SDS011;6014;47.690;9.130;2023-02-04T00:44:59;2.27;;;1.23;;
11907;SDS011;6014;47.690;9.130;2023-02-04T00:47:29;2.27;;;1.20;;
11907;SDS011;6014;47.690;9.130;2023-02-04T00:49:57;2.43;;;1.00;;
11907;SDS011;6014;47.690;9.130;2023-02-04T00:52:25;1.77;;;1.13;;
11907;SDS011;6014;47.690;9.130;2023-02-04T00:54:53;1.47;;;1.10;;
11907;SDS011;6014;47.690;9.130;2023-02-04T00:57:25;1.80;;;1.30;;
11907;SDS011;6014;47.690;9.130;2023-02-04T00:59:53;1.10;;;0.83;;
11907;SDS011;6014;47.690;9.130;2023-02-04T01:02:21;1.93;;;1.20;;
11907;SDS011;6014;47.690;9.130;2023-02-04T01:04:50;1.57;;;1.20;;
11907;SDS011;6014;47.690;9.130;2023-02-04T01:07:18;0.93;;;0.77;;
11907;SDS011;6014;47.690;9.130;2023-02-04T01:09:46;2.80;;;1.23;;
11907;SDS011;6014;47.690;9.130;2023-02-04T01:12:14;2.73;;;1.50;;
11907;SDS011;6014;47.690;9.130;2023-02-04T01:14:42;1.87;;;1.27;;
11907;SDS011;6014;47.690;9.130;2023-02-04T01:17:10;1.83;;;1.10;;
11907;SDS011;6014;47.690;9.130;2023-02-04T01:19:38;2.43;;;1.30;;
11907;SDS011;6014;47.690;9.130;2023-02-04T01:22:07;1.03;;;0.77;;
11907;SDS011;6014;47.690;9.130;2023-02-04T01:24:35;2.63;;;1.20;;
11907;SDS011;6014;47.690;9.130;2023-02-04T01:27:04;2.07;;;1.07;;
11907;SDS011;6014;47.690;9.130;2023-02-04T01:29:32;2.00;;;1.23;;
11907;SDS011;6014;47.690;9.130;2023-02-04T01:31:59;1.77;;;1.10;;
11907;SDS011;6014;47.690;9.130;2023-02-04T01:34:28;2.33;;;1.27;;
11907;SDS011;6014;47.690;9.130;2023-02-04T01:36:56;2.20;;;1.20;;
11907;SDS011;6014;47.690;9.130;2023-02-04T01:39:26;2.67;;;1.30;;
11907;SDS011;6014;47.690;9.130;2023-02-04T01:41:54;1.73;;;0.90;;
11907;SDS011;6014;47.690;9.130;2023-02-04T01:44:23;3.53;;;1.53;;
11907;SDS011;6014;47.690;9.130;2023-02-04T01:49:38;2.93;;;1.10;;
11907;SDS011;6014;47.690;9.130;2023-02-04T01:52:06;2.27;;;1.30;;
11907;SDS011;6014;47.690;9.130;2023-02-04T01:54:37;1.70;;;1.10;;
11907;SDS011;6014;47.690;9.130;2023-02-04T01:57:05;1.73;;;1.07;;
11907;SDS011;6014;47.690;9.130;2023-02-04T01:59:39;2.30;;;1.30;;
11907;SDS011;6014;47.690;9.130;2023-02-04T02:05:05;2.37;;;1.30;;
11907;SDS011;6014;47.690;9.130;2023-02-04T02:07:33;2.30;;;1.30;;
11907;SDS011;6014;47.690;9.130;2023-02-04T02:10:04;1.93;;;1.10;;
11907;SDS011;6014;47.690;9.130;2023-02-04T02:12:33;2.47;;;1.33;;
11907;SDS011;6014;47.690;9.130;2023-02-04T02:15:01;3.97;;;1.30;;
11907;SDS011;6014;47.690;9.130;2023-02-04T02:17:30;4.33;;;1.87;;
11907;SDS011;6014;47.690;9.130;2023-02-04T02:19:58;2.43;;;1.40;;
11907;SDS011;6014;47.690;9.130;2023-02-04T02:22:36;3.67;;;1.43;;
11907;SDS011;6014;47.690;9.130;2023-02-04T02:25:13;1.60;;;1.20;;
11907;SDS011;6014;47.690;9.130;2023-02-04T02:27:42;3.10;;;1.70;;
11907;SDS011;6014;47.690;9.130;2023-02-04T02:30:10;1.10;;;1.00;;
11907;SDS011;6014;47.690;9.130;2023-02-04T02:32:42;2.40;;;1.40;;
11907;SDS011;6014;47.690;9.130;2023-02-04T02:35:10;3.47;;;1.50;;
11907;SDS011;6014;47.690;9.130;2023-02-04T02:37:39;6.17;;;1.53;;
11907;SDS011;6014;47.690;9.130;2023-02-04T02:40:16;2.07;;;1.23;;
11907;SDS011;6014;47.690;9.130;2023-02-04T02:42:46;3.80;;;1.50;;
11907;SDS011;6014;47.690;9.130;2023-02-04T02:45:20;2.27;;;1.50;;
11907;SDS011;6014;47.690;9.130;2023-02-04T02:47:50;1.83;;;1.37;;
11907;SDS011;6014;47.690;9.130;2023-02-04T02:50:20;3.77;;;2.00;;
11907;SDS011;6014;47.690;9.130;2023-02-04T02:52:50;4.23;;;1.67;;
11907;SDS011;6014;47.690;9.130;2023-02-04T02:55:20;3.13;;;1.80;;
11907;SDS011;6014;47.690;9.130;2023-02-04T02:57:51;3.03;;;1.67;;
11907;SDS011;6014;47.690;9.130;2023-02-04T03:00:20;3.33;;;1.90;;
11907;SDS011;6014;47.690;9.130;2023-02-04T03:02:51;4.70;;;1.80;;
11907;SDS011;6014;47.690;9.130;2023-02-04T03:05:22;3.33;;;1.77;;
11907;SDS011;6014;47.690;9.130;2023-02-04T03:07:52;3.67;;;1.77;;
11907;SDS011;6014;47.690;9.130;2023-02-04T03:10:23;3.37;;;1.80;;
11907;SDS011;6014;47.690;9.130;2023-02-04T03:12:51;2.70;;;1.20;;
11907;SDS011;6014;47.690;9.130;2023-02-04T03:15:19;1.23;;;1.13;;
11907;SDS011;6014;47.690;9.130;2023-02-04T03:17:47;4.30;;;2.13;;
11907;SDS011;6014;47.690;9.130;2023-02-04T03:20:17;3.17;;;1.77;;
11907;SDS011;6014;47.690;9.130;2023-02-04T03:22:45;3.57;;;1.67;;
11907;SDS011;6014;47.690;9.130;2023-02-04T03:25:20;3.17;;;1.70;;
11907;SDS011;6014;47.690;9.130;2023-02-04T03:27:51;3.90;;;1.90;;
11907;SDS011;6014;47.690;9.130;2023-02-04T03:30:19;2.57;;;1.40;;
11907;SDS011;6014;47.690;9.130;2023-02-04T03:32:48;4.67;;;1.80;;
11907;SDS011;6014;47.690;9.130;2023-02-04T03:35:18;2.87;;;1.60;;
11907;SDS011;6014;47.690;9.130;2023-02-04T03:37:47;8.93;;;1.80;;
11907;SDS011;6014;47.690;9.130;2023-02-04T03:40:15;5.43;;;1.83;;
11907;SDS011;6014;47.690;9.130;2023-02-04T03:42:43;4.00;;;1.73;;
11907;SDS011;6014;47.690;9.130;2023-02-04T03:45:12;3.30;;;1.63;;
11907;SDS011;6014;47.690;9.130;2023-02-04T03:47:41;3.17;;;1.50;;
11907;SDS011;6014;47.690;9.130;2023-02-04T03:50:09;5.57;;;2.13;;
11907;SDS011;6014;47.690;9.130;2023-02-04T03:52:39;3.37;;;1.60;;
11907;SDS011;6014;47.690;9.130;2023-02-04T03:55:07;3.43;;;1.77;;
11907;SDS011;6014;47.690;9.130;2023-02-04T03:57:35;3.13;;;1.57;;
11907;SDS011;6014;47.690;9.130;2023-02-04T04:00:03;4.90;;;1.70;;
11907;SDS011;6014;47.690;9.130;2023-02-04T04:02:33;4.23;;;2.13;;
11907;SDS011;6014;47.690;9.130;2023-02-04T04:05:01;3.30;;;1.87;;
11907;SDS011;6014;47.690;9.130;2023-02-04T04:07:29;3.80;;;1.87;;
11907;SDS011;6014;47.690;9.130;2023-02-04T04:09:57;1.73;;;1.33;;
11907;SDS011;6014;47.690;9.130;2023-02-04T04:12:26;2.00;;;1.30;;
11907;SDS011;6014;47.690;9.130;2023-02-04T04:14:54;5.83;;;1.67;;
11907;SDS011;6014;47.690;9.130;2023-02-04T04:17:22;4.70;;;1.50;;
11907;SDS011;6014;47.690;9.130;2023-02-04T04:19:51;3.23;;;2.03;;
11907;SDS011;6014;47.690;9.130;2023-02-04T04:22:19;3.83;;;2.00;;
11907;SDS011;6014;47.690;9.130;2023-02-04T04:24:47;5.30;;;1.70;;
11907;SDS011;6014;47.690;9.130;2023-02-04T04:27:15;2.00;;;1.30;;
11907;SDS011;6014;47.690;9.130;2023-02-04T04:29:45;4.67;;;1.80;;
11907;SDS011;6014;47.690;9.130;2023-02-04T04:32:13;4.13;;;1.93;;
11907;SDS011;6014;47.690;9.130;2023-02-04T04:34:41;4.43;;;1.70;;
11907;SDS011;6014;47.690;9.130;2023-02-04T04:37:11;2.97;;;1.70;;
11907;SDS011;6014;47.690;9.130;2023-02-04T04:39:39;5.03;;;1.50;;
11907;SDS011;6014;47.690;9.130;2023-02-04T04:42:07;2.10;;;1.70;;
11907;SDS011;6014;47.690;9.130;2023-02-04T04:44:35;2.30;;;1.33;;
11907;SDS011;6014;47.690;9.130;2023-02-04T04:47:03;3.17;;;1.47;;
11907;SDS011;6014;47.690;9.130;2023-02-04T04:49:31;2.90;;;1.47;;
11907;SDS011;6014;47.690;9.130;2023-02-04T04:51:59;3.17;;;1.90;;
11907;SDS011;6014;47.690;9.130;2023-02-04T04:54:28;2.47;;;1.37;;
11907;SDS011;6014;47.690;9.130;2023-02-04T04:56:56;2.07;;;1.17;;
11907;SDS011;6014;47.690;9.130;2023-02-04T04:59:24;4.93;;;1.83;;
11907;SDS011;6014;47.690;9.130;2023-02-04T05:01:52;3.40;;;1.87;;
11907;SDS011;6014;47.690;9.130;2023-02-04T05:04:20;2.70;;;1.60;;
11907;SDS011;6014;47.690;9.130;2023-02-04T05:06:48;3.13;;;1.60;;
11907;SDS011;6014;47.690;9.130;2023-02-04T05:09:16;1.93;;;1.30;;
11907;SDS011;6014;47.690;9.130;2023-02-04T05:11:45;2.97;;;1.60;;
11907;SDS011;6014;47.690;9.130;2023-02-04T05:14:13;2.90;;;1.40;;
11907;SDS011;6014;47.690;9.130;2023-02-04T05:16:41;2.57;;;1.50;;
11907;SDS011;6014;47.690;9.130;2023-02-04T05:19:09;4.10;;;1.80;;
11907;SDS011;6014;47.690;9.130;2023-02-04T05:21:39;2.20;;;1.30;;
11907;SDS011;6014;47.690;9.130;2023-02-04T05:24:07;3.80;;;1.63;;
11907;SDS011;6014;47.690;9.130;2023-02-04T05:26:35;3.17;;;1.57;;
11907;SDS011;6014;47.690;9.130;2023-02-04T05:29:04;3.83;;;2.07;;
11907;SDS011;6014;47.690;9.130;2023-02-04T05:31:32;2.67;;;1.53;;
11907;SDS011;6014;47.690;9.130;2023-02-04T05:34:01;1.70;;;1.20;;
11907;SDS011;6014;47.690;9.130;2023-02-04T05:36:29;2.20;;;1.43;;
11907;SDS011;6014;47.690;9.130;2023-02-04T05:38:57;3.53;;;1.63;;
11907;SDS011;6014;47.690;9.130;2023-02-04T05:41:25;4.77;;;2.20;;
11907;SDS011;6014;47.690;9.130;2023-02-04T05:43:53;1.50;;;1.10;;
11907;SDS011;6014;47.690;9.130;2023-02-04T05:46:22;4.03;;;1.90;;
11907;SDS011;6014;47.690;9.130;2023-02-04T05:48:50;4.73;;;2.43;;
11907;SDS011;6014;47.690;9.130;2023-02-04T05:51:18;2.77;;;1.33;;
11907;SDS011;6014;47.690;9.130;2023-02-04T05:53:46;2.43;;;1.33;;
11907;SDS011;6014;47.690;9.130;2023-02-04T05:56:14;3.63;;;2.07;;
11907;SDS011;6014;47.690;9.130;2023-02-04T05:58:43;2.23;;;1.37;;
11907;SDS011;6014;47.690;9.130;2023-02-04T06:01:11;2.07;;;1.53;;
11907;SDS011;6014;47.690;9.130;2023-02-04T06:03:40;2.77;;;1.00;;
11907;SDS011;6014;47.690;9.130;2023-02-04T06:06:08;2.87;;;1.60;;
11907;SDS011;6014;47.690;9.130;2023-02-04T06:08:36;6.43;;;1.50;;
11907;SDS011;6014;47.690;9.130;2023-02-04T06:11:05;3.50;;;1.80;;
11907;SDS011;6014;47.690;9.130;2023-02-04T06:13:33;3.17;;;1.87;;
11907;SDS011;6014;47.690;9.130;2023-02-04T06:16:03;6.33;;;2.10;;
11907;SDS011;6014;47.690;9.130;2023-02-04T06:18:31;4.10;;;2.30;;
11907;SDS011;6014;47.690;9.130;2023-02-04T06:21:00;3.53;;;2.00;;
11907;SDS011;6014;47.690;9.130;2023-02-04T06:23:30;5.47;;;2.70;;
11907;SDS011;6014;47.690;9.130;2023-02-04T06:25:59;6.40;;;2.53;;
11907;SDS011;6014;47.690;9.130;2023-02-04T06:28:28;3.57;;;2.03;;
11907;SDS011;6014;47.690;9.130;2023-02-04T06:30:56;6.73;;;2.47;;
11907;SDS011;6014;47.690;9.130;2023-02-04T06:33:24;6.20;;;2.87;;
11907;SDS011;6014;47.690;9.130;2023-02-04T06:35:52;4.80;;;2.70;;
11907;SDS011;6014;47.690;9.130;2023-02-04T06:38:21;4.30;;;2.30;;
11907;SDS011;6014;47.690;9.130;2023-02-04T06:40:49;6.10;;;2.83;;
11907;SDS011;6014;47.690;9.130;2023-02-04T06:43:19;5.30;;;2.77;;
11907;SDS011;6014;47.690;9.130;2023-02-04T06:45:47;5.60;;;2.70;;
11907;SDS011;6014;47.690;9.130;2023-02-04T06:48:16;4.80;;;2.43;;
11907;SDS011;6014;47.690;9.130;2023-02-04T06:50:44;6.50;;;2.47;;
11907;SDS011;6014;47.690;9.130;2023-02-04T06:53:12;3.40;;;1.93;;
11907;SDS011;6014;47.690;9.130;2023-02-04T06:55:41;4.00;;;2.33;;
11907;SDS011;6014;47.690;9.130;2023-02-04T06:58:09;7.80;;;2.30;;
11907;SDS011;6014;47.690;9.130;2023-02-04T07:00:39;6.47;;;3.10;;
11907;SDS011;6014;47.690;9.130;2023-02-04T07:03:07;6.33;;;2.80;;
11907;SDS011;6014;47.690;9.130;2023-02-04T07:05:35;5.90;;;2.97;;
11907;SDS011;6014;47.690;9.130;2023-02-04T07:08:03;8.63;;;3.80;;
11907;SDS011;6014;47.690;9.130;2023-02-04T07:10:31;7.00;;;3.30;;
11907;SDS011;6014;47.690;9.130;2023-02-04T07:13:01;4.70;;;2.80;;
11907;SDS011;6014;47.690;9.130;2023-02-04T07:15:29;5.80;;;2.87;;
11907;SDS011;6014;47.690;9.130;2023-02-04T07:20:46;3.87;;;2.17;;
11907;SDS011;6014;47.690;9.130;2023-02-04T07:23:14;4.70;;;2.37;;
11907;SDS011;6014;47.690;9.130;2023-02-04T07:25:42;4.40;;;2.30;;
11907;SDS011;6014;47.690;9.130;2023-02-04T07:28:11;3.57;;;1.97;;
11907;SDS011;6014;47.690;9.130;2023-02-04T07:30:39;3.67;;;2.40;;
11907;SDS011;6014;47.690;9.130;2023-02-04T07:33:07;3.80;;;2.10;;
11907;SDS011;6014;47.690;9.130;2023-02-04T07:35:35;4.30;;;2.40;;
11907;SDS011;6014;47.690;9.130;2023-02-04T07:38:04;4.63;;;2.37;;
11907;SDS011;6014;47.690;9.130;2023-02-04T07:40:32;5.57;;;2.53;;
11907;SDS011;6014;47.690;9.130;2023-02-04T07:43:00;5.27;;;2.40;;
11907;SDS011;6014;47.690;9.130;2023-02-04T07:45:30;6.60;;;3.43;;
11907;SDS011;6014;47.690;9.130;2023-02-04T07:47:58;6.73;;;4.00;;
11907;SDS011;6014;47.690;9.130;2023-02-04T07:50:26;7.63;;;4.03;;
11907;SDS011;6014;47.690;9.130;2023-02-04T07:52:54;9.23;;;4.77;;
11907;SDS011;6014;47.690;9.130;2023-02-04T07:55:22;6.63;;;3.53;;
11907;SDS011;6014;47.690;9.130;2023-02-04T07:57:50;6.20;;;3.33;;
11907;SDS011;6014;47.690;9.130;2023-02-04T08:00:18;5.27;;;2.97;;
11907;SDS011;6014;47.690;9.130;2023-02-04T08:02:48;5.40;;;2.90;;
11907;SDS011;6014;47.690;9.130;2023-02-04T08:05:16;5.97;;;2.80;;
11907;SDS011;6014;47.690;9.130;2023-02-04T08:07:45;5.67;;;2.53;;
11907;SDS011;6014;47.690;9.130;2023-02-04T08:10:13;4.87;;;2.33;;
11907;SDS011;6014;47.690;9.130;2023-02-04T08:12:41;5.00;;;2.97;;
11907;SDS011;6014;47.690;9.130;2023-02-04T08:15:09;9.03;;;4.67;;
11907;SDS011;6014;47.690;9.130;2023-02-04T08:17:37;7.47;;;3.97;;
11907;SDS011;6014;47.690;9.130;2023-02-04T08:20:07;7.47;;;4.23;;
11907;SDS011;6014;47.690;9.130;2023-02-04T08:22:35;5.43;;;2.90;;
11907;SDS011;6014;47.690;9.130;2023-02-04T08:25:04;7.27;;;3.00;;
11907;SDS011;6014;47.690;9.130;2023-02-04T08:27:32;4.50;;;2.65;;
11907;SDS011;6014;47.690;9.130;2023-02-04T08:30:00;5.53;;;2.30;;
11907;SDS011;6014;47.690;9.130;2023-02-04T08:32:28;3.57;;;2.30;;
11907;SDS011;6014;47.690;9.130;2023-02-04T08:34:56;4.30;;;2.30;;
11907;SDS011;6014;47.690;9.130;2023-02-04T08:37:26;5.10;;;2.60;;
11907;SDS011;6014;47.690;9.130;2023-02-04T08:39:54;11.13;;;5.70;;
11907;SDS011;6014;47.690;9.130;2023-02-04T08:42:22;11.33;;;6.20;;
11907;SDS011;6014;47.690;9.130;2023-02-04T08:44:50;7.38;;;3.58;;
11907;SDS011;6014;47.690;9.130;2023-02-04T08:47:18;6.23;;;3.20;;
11907;SDS011;6014;47.690;9.130;2023-02-04T08:49:46;4.40;;;2.57;;
11907;SDS011;6014;47.690;9.130;2023-02-04T08:52:21;8.90;;;4.00;;
11907;SDS011;6014;47.690;9.130;2023-02-04T08:54:51;5.60;;;3.20;;
11907;SDS011;6014;47.690;9.130;2023-02-04T08:57:19;4.07;;;1.90;;
11907;SDS011;6014;47.690;9.130;2023-02-04T08:59:47;2.47;;;1.40;;
11907;SDS011;6014;47.690;9.130;2023-02-04T09:02:15;3.10;;;1.40;;
11907;SDS011;6014;47.690;9.130;2023-02-04T09:04:43;2.73;;;1.43;;
11907;SDS011;6014;47.690;9.130;2023-02-04T09:07:11;1.70;;;1.00;;
11907;SDS011;6014;47.690;9.130;2023-02-04T09:09:39;1.93;;;1.13;;
11907;SDS011;6014;47.690;9.130;2023-02-04T09:12:09;1.67;;;0.97;;
11907;SDS011;6014;47.690;9.130;2023-02-04T09:14:37;3.00;;;1.50;;
11907;SDS011;6014;47.690;9.130;2023-02-04T09:17:05;2.20;;;1.43;;
11907;SDS011;6014;47.690;9.130;2023-02-04T09:19:33;3.60;;;1.73;;
11907;SDS011;6014;47.690;9.130;2023-02-04T09:22:00;2.57;;;1.47;;
11907;SDS011;6014;47.690;9.130;2023-02-04T09:24:28;1.30;;;1.00;;
11907;SDS011;6014;47.690;9.130;2023-02-04T09:26:56;2.03;;;1.20;;
11907;SDS011;6014;47.690;9.130;2023-02-04T09:29:26;3.07;;;1.17;;
11907;SDS011;6014;47.690;9.130;2023-02-04T09:31:54;1.77;;;1.17;;
11907;SDS011;6014;47.690;9.130;2023-02-04T09:34:22;1.50;;;0.93;;
11907;SDS011;6014;47.690;9.130;2023-02-04T09:36:50;3.10;;;1.25;;
11907;SDS011;6014;47.690;9.130;2023-02-04T09:39:18;1.63;;;1.15;;
11907;SDS011;6014;47.690;9.130;2023-02-04T09:41:46;2.65;;;1.25;;
11907;SDS011;6014;47.690;9.130;2023-02-04T09:44:15;1.73;;;1.17;;
11907;SDS011;6014;47.690;9.130;2023-02-04T09:46:49;3.30;;;1.55;;
11907;SDS011;6014;47.690;9.130;2023-02-04T09:49:19;11.70;;;6.30;;
11907;SDS011;6014;47.690;9.130;2023-02-04T09:51:47;9.57;;;5.47;;
11907;SDS011;6014;47.690;9.130;2023-02-04T09:54:17;3.93;;;2.33;;
11907;SDS011;6014;47.690;9.130;2023-02-04T09:56:46;3.13;;;1.90;;
11907;SDS011;6014;47.690;9.130;2023-02-04T09:59:16;3.23;;;1.10;;
11907;SDS011;6014;47.690;9.130;2023-02-04T10:01:47;1.60;;;1.00;;
11907;SDS011;6014;47.690;9.130;2023-02-04T10:04:21;1.60;;;1.17;;
11907;SDS011;6014;47.690;9.130;2023-02-04T10:06:50;4.60;;;1.55;;
11907;SDS011;6014;47.690;9.130;2023-02-04T10:09:18;2.35;;;1.20;;
11907;SDS011;6014;47.690;9.130;2023-02-04T10:11:47;3.63;;;1.63;;
11907;SDS011;6014;47.690;9.130;2023-02-04T10:14:17;3.17;;;1.70;;
11907;SDS011;6014;47.690;9.130;2023-02-04T10:16:50;2.40;;;1.42;;
11907;SDS011;6014;47.690;9.130;2023-02-04T10:19:24;3.50;;;1.70;;
11907;SDS011;6014;47.690;9.130;2023-02-04T10:21:54;2.20;;;1.40;;
11907;SDS011;6014;47.690;9.130;2023-02-04T10:24:26;3.45;;;1.63;;
11907;SDS011;6014;47.690;9.130;2023-02-04T10:27:05;3.45;;;1.55;;
11907;SDS011;6014;47.690;9.130;2023-02-04T10:29:33;2.22;;;1.20;;
11907;SDS011;6014;47.690;9.130;2023-02-04T10:32:03;3.72;;;1.13;;
11907;SDS011;6014;47.690;9.130;2023-02-04T10:34:32;3.22;;;1.85;;
11907;SDS011;6014;47.690;9.130;2023-02-04T10:37:10;2.17;;;1.33;;
11907;SDS011;6014;47.690;9.130;2023-02-04T10:39:45;3.22;;;1.48;;
11907;SDS011;6014;47.690;9.130;2023-02-04T10:42:18;2.38;;;1.50;;
11907;SDS011;6014;47.690;9.130;2023-02-04T10:44:48;5.75;;;1.48;;
11907;SDS011;6014;47.690;9.130;2023-02-04T10:47:18;2.60;;;1.45;;
11907;SDS011;6014;47.690;9.130;2023-02-04T10:49:51;3.42;;;1.75;;
11907;SDS011;6014;47.690;9.130;2023-02-04T10:52:20;1.90;;;1.30;;
11907;SDS011;6014;47.690;9.130;2023-02-04T10:54:50;3.28;;;1.10;;
11907;SDS011;6014;47.690;9.130;2023-02-04T10:57:18;3.75;;;1.25;;
11907;SDS011;6014;47.690;9.130;2023-02-04T10:59:48;3.58;;;1.58;;
11907;SDS011;6014;47.690;9.130;2023-02-04T11:05:01;3.15;;;1.30;;
11907;SDS011;6014;47.690;9.130;2023-02-04T11:07:33;2.38;;;1.30;;
11907;SDS011;6014;47.690;9.130;2023-02-04T11:10:01;2.50;;;1.40;;
11907;SDS011;6014;47.690;9.130;2023-02-04T11:12:36;2.63;;;1.38;;
11907;SDS011;6014;47.690;9.130;2023-02-04T11:18:11;5.10;;;1.85;;
11907;SDS011;6014;47.690;9.130;2023-02-04T11:20:52;4.22;;;1.80;;
11907;SDS011;6014;47.690;9.130;2023-02-04T11:23:29;2.78;;;1.45;;
11907;SDS011;6014;47.690;9.130;2023-02-04T11:26:06;1.98;;;1.30;;
11907;SDS011;6014;47.690;9.130;2023-02-04T11:28:47;2.15;;;1.35;;
11907;SDS011;6014;47.690;9.130;2023-02-04T11:31:27;3.50;;;1.35;;
11907;SDS011;6014;47.690;9.130;2023-02-04T11:34:10;2.35;;;1.35;;
11907;SDS011;6014;47.690;9.130;2023-02-04T11:39:53;2.72;;;1.27;;
11907;SDS011;6014;47.690;9.130;2023-02-04T11:42:26;1.35;;;0.98;;
11907;SDS011;6014;47.690;9.130;2023-02-04T11:44:58;3.97;;;1.50;;
11907;SDS011;6014;47.690;9.130;2023-02-04T11:47:33;3.22;;;1.70;;
11907;SDS011;6014;47.690;9.130;2023-02-04T11:50:09;5.90;;;1.80;;
11907;SDS011;6014;47.690;9.130;2023-02-04T11:52:59;5.22;;;2.35;;
11907;SDS011;6014;47.690;9.130;2023-02-04T11:55:28;4.78;;;1.65;;
11907;SDS011;6014;47.690;9.130;2023-02-04T11:57:58;3.10;;;1.40;;
11907;SDS011;6014;47.690;9.130;2023-02-04T12:00:28;2.72;;;1.20;;
11907;SDS011;6014;47.690;9.130;2023-02-04T12:02:58;1.67;;;1.08;;
11907;SDS011;6014;47.690;9.130;2023-02-04T12:05:39;2.03;;;1.20;;
11907;SDS011;6014;47.690;9.130;2023-02-04T12:08:08;3.53;;;1.15;;
11907;SDS011;6014;47.690;9.130;2023-02-04T12:10:50;2.92;;;1.23;;
11907;SDS011;6014;47.690;9.130;2023-02-04T12:13:26;10.45;;;1.23;;
11907;SDS011;6014;47.690;9.130;2023-02-04T12:15:59;2.35;;;1.30;;
11907;SDS011;6014;47.690;9.130;2023-02-04T12:18:30;4.30;;;1.55;;
11907;SDS011;6014;47.690;9.130;2023-02-04T12:21:00;4.30;;;1.30;;
11907;SDS011;6014;47.690;9.130;2023-02-04T12:23:29;4.65;;;1.33;;
11907;SDS011;6014;47.690;9.130;2023-02-04T12:25:57;3.50;;;1.27;;
11907;SDS011;6014;47.690;9.130;2023-02-04T12:28:26;3.05;;;1.45;;
11907;SDS011;6014;47.690;9.130;2023-02-04T12:30:54;3.08;;;1.40;;
11907;SDS011;6014;47.690;9.130;2023-02-04T12:33:22;4.07;;;1.58;;
11907;SDS011;6014;47.690;9.130;2023-02-04T12:35:51;3.28;;;1.50;;
11907;SDS011;6014;47.690;9.130;2023-02-04T12:41:11;3.58;;;1.25;;
11907;SDS011;6014;47.690;9.130;2023-02-04T12:43:39;4.00;;;1.75;;
11907;SDS011;6014;47.690;9.130;2023-02-04T12:46:09;3.55;;;1.52;;
11907;SDS011;6014;47.690;9.130;2023-02-04T12:48:37;4.82;;;1.45;;
11907;SDS011;6014;47.690;9.130;2023-02-04T12:51:06;3.03;;;1.50;;
11907;SDS011;6014;47.690;9.130;2023-02-04T12:53:34;5.25;;;1.52;;
11907;SDS011;6014;47.690;9.130;2023-02-04T12:56:04;5.82;;;1.60;;
11907;SDS011;6014;47.690;9.130;2023-02-04T12:58:33;4.97;;;1.65;;
11907;SDS011;6014;47.690;9.130;2023-02-04T13:01:01;5.25;;;1.42;;
11907;SDS011;6014;47.690;9.130;2023-02-04T13:03:29;4.63;;;1.92;;
11907;SDS011;6014;47.690;9.130;2023-02-04T13:05:58;6.50;;;2.05;;
11907;SDS011;6014;47.690;9.130;2023-02-04T13:08:26;4.20;;;1.60;;
11907;SDS011;6014;47.690;9.130;2023-02-04T13:10:54;6.72;;;2.10;;
11907;SDS011;6014;47.690;9.130;2023-02-04T13:13:23;5.35;;;1.75;;
11907;SDS011;6014;47.690;9.130;2023-02-04T13:15:51;4.45;;;1.90;;
11907;SDS011;6014;47.690;9.130;2023-02-04T13:18:19;6.22;;;2.25;;
11907;SDS011;6014;47.690;9.130;2023-02-04T13:20:47;18.00;;;5.78;;
11907;SDS011;6014;47.690;9.130;2023-02-04T13:23:15;2.58;;;1.30;;
11907;SDS011;6014;47.690;9.130;2023-02-04T13:25:43;4.28;;;2.15;;
11907;SDS011;6014;47.690;9.130;2023-02-04T13:28:11;4.97;;;1.75;;
11907;SDS011;6014;47.690;9.130;2023-02-04T13:30:41;5.78;;;1.77;;
11907;SDS011;6014;47.690;9.130;2023-02-04T13:33:09;4.25;;;1.77;;
11907;SDS011;6014;47.690;9.130;2023-02-04T13:35:37;5.15;;;2.00;;
11907;SDS011;6014;47.690;9.130;2023-02-04T13:38:06;2.72;;;1.42;;
11907;SDS011;6014;47.690;9.130;2023-02-04T13:40:34;7.47;;;1.88;;
11907;SDS011;6014;47.690;9.130;2023-02-04T13:43:02;5.32;;;1.83;;
11907;SDS011;6014;47.690;9.130;2023-02-04T13:45:30;4.53;;;1.98;;
11907;SDS011;6014;47.690;9.130;2023-02-04T13:48:00;4.25;;;1.80;;
11907;SDS011;6014;47.690;9.130;2023-02-04T13:50:28;8.05;;;1.92;;
11907;SDS011;6014;47.690;9.130;2023-02-04T13:52:56;6.05;;;1.67;;
11907;SDS011;6014;47.690;9.130;2023-02-04T13:55:27;5.13;;;1.70;;
11907;SDS011;6014;47.690;9.130;2023-02-04T13:57:56;2.83;;;1.55;;
11907;SDS011;6014;47.690;9.130;2023-02-04T14:00:24;6.88;;;1.85;;
11907;SDS011;6014;47.690;9.130;2023-02-04T14:02:52;5.50;;;1.67;;
11907;SDS011;6014;47.690;9.130;2023-02-04T14:05:23;8.07;;;1.90;;
11907;SDS011;6014;47.690;9.130;2023-02-04T14:07:51;5.38;;;2.10;;
11907;SDS011;6014;47.690;9.130;2023-02-04T14:10:19;4.20;;;1.58;;
11907;SDS011;6014;47.690;9.130;2023-02-04T14:12:50;6.90;;;2.10;;
11907;SDS011;6014;47.690;9.130;2023-02-04T14:15:18;5.40;;;1.52;;
11907;SDS011;6014;47.690;9.130;2023-02-04T14:17:46;5.53;;;1.75;;
11907;SDS011;6014;47.690;9.130;2023-02-04T14:20:14;7.25;;;1.75;;
11907;SDS011;6014;47.690;9.130;2023-02-04T14:22:43;4.80;;;1.92;;
11907;SDS011;6014;47.690;9.130;2023-02-04T14:25:11;4.22;;;1.75;;
11907;SDS011;6014;47.690;9.130;2023-02-04T14:27:39;5.80;;;3.22;;
11907;SDS011;6014;47.690;9.130;2023-02-04T14:32:42;13.18;;;6.50;;
11907;SDS011;6014;47.690;9.130;2023-02-04T14:35:10;7.10;;;2.80;;
11907;SDS011;6014;47.690;9.130;2023-02-04T14:37:38;5.25;;;1.63;;
11907;SDS011;6014;47.690;9.130;2023-02-04T14:40:09;4.25;;;1.55;;
11907;SDS011;6014;47.690;9.130;2023-02-04T14:42:38;6.10;;;1.95;;
11907;SDS011;6014;47.690;9.130;2023-02-04T14:45:08;4.30;;;1.95;;
11907;SDS011;6014;47.690;9.130;2023-02-04T14:47:37;5.00;;;2.50;;
11907;SDS011;6014;47.690;9.130;2023-02-04T14:50:07;5.85;;;2.67;;
11907;SDS011;6014;47.690;9.130;2023-02-04T14:52:37;5.75;;;1.90;;
11907;SDS011;6014;47.690;9.130;2023-02-04T14:55:08;6.25;;;2.00;;
11907;SDS011;6014;47.690;9.130;2023-02-04T14:57:38;7.63;;;1.83;;
11907;SDS011;6014;47.690;9.130;2023-02-04T15:00:06;10.48;;;2.53;;
11907;SDS011;6014;47.690;9.130;2023-02-04T15:02:34;6.22;;;2.20;;
11907;SDS011;6014;47.690;9.130;2023-02-04T15:05:03;4.70;;;2.05;;
11907;SDS011;6014;47.690;9.130;2023-02-04T15:07:31;6.97;;;1.77;;
11907;SDS011;6014;47.690;9.130;2023-02-04T15:12:50;4.53;;;1.88;;
11907;SDS011;6014;47.690;9.130;2023-02-04T15:15:20;5.97;;;2.20;;
11907;SDS011;6014;47.690;9.130;2023-02-04T15:17:48;5.07;;;2.08;;
11907;SDS011;6014;47.690;9.130;2023-02-04T15:20:16;6.60;;;2.42;;
11907;SDS011;6014;47.690;9.130;2023-02-04T15:22:44;8.50;;;2.63;;
11907;SDS011;6014;47.690;9.130;2023-02-04T15:25:24;5.97;;;2.25;;
11907;SDS011;6014;47.690;9.130;2023-02-04T15:27:52;8.05;;;2.60;;
11907;SDS011;6014;47.690;9.130;2023-02-04T15:30:20;6.65;;;2.65;;
11907;SDS011;6014;47.690;9.130;2023-02-04T15:32:48;10.27;;;2.70;;
11907;SDS011;6014;47.690;9.130;2023-02-04T15:35:16;5.97;;;2.20;;
11907;SDS011;6014;47.690;9.130;2023-02-04T15:37:44;12.35;;;6.45;;